Time;durP1;ratioP1;P1;durP2;ratioP2;P2;SDS_P1;SDS_P2;PMS_P1;PMS_P2;Temp;Humidity;BMP_temperature;BMP_pressure;BME280_temperature;BME280_humidity;BME280_pressure;Samples;Min_cycle;Max_cycle;Signal;HPM_P1;HPM_P2
2022/01/01 00:01:24;;;;;;;56.13;34.50;;;;;;;;;;5011570;28;20234;-72
2022/01/01 00:03:51;;;;;;;49.23;30.03;;;;;;;;;;5015275;28;20208;-72
2022/01/01 00:06:18;;;;;;;68.90;51.50;;;;;;;;;;5013221;28;20228;-71
2022/01/01 00:08:46;;;;;;;49.83;28.67;;;;;;;;;;5012543;28;20323;-71
2022/01/01 00:11:13;;;;;;;54.73;33.50;;;;;;;;;;5013124;28;20682;-72
2022/01/01 00:13:39;;;;;;;53.77;32.93;;;;;;;;;;5012579;28;20300;-72
2022/01/01 00:16:09;;;;;;;55.60;34.73;;;;;;;;;;5011421;28;20300;-72
2022/01/01 00:18:35;;;;;;;44.47;25.23;;;;;;;;;;5014347;28;20210;-72
2022/01/01 00:21:02;;;;;;;52.20;33.00;;;;;;;;;;5013400;28;20223;-72
2022/01/01 00:23:28;;;;;;;52.33;33.73;;;;;;;;;;5010468;28;20320;-72
2022/01/01 00:25:56;;;;;;;55.23;30.17;;;;;;;;;;5013940;28;20226;-72
2022/01/01 00:28:22;;;;;;;52.10;28.80;;;;;;;;;;5013099;28;20207;-72
2022/01/01 00:30:49;;;;;;;51.77;28.90;;;;;;;;;;5012447;28;20211;-72
2022/01/01 00:33:15;;;;;;;53.93;32.43;;;;;;;;;;5012181;28;20296;-72
2022/01/01 00:35:42;;;;;;;57.90;37.40;;;;;;;;;;5013350;28;20869;-72
2022/01/01 00:38:09;;;;;;;66.23;42.03;;;;;;;;;;5011556;28;20263;-72
2022/01/01 00:40:36;;;;;;;68.37;48.20;;;;;;;;;;5012676;28;20280;-72
2022/01/01 00:43:04;;;;;;;83.87;54.80;;;;;;;;;;5012962;28;20208;-72
2022/01/01 00:45:30;;;;;;;79.80;58.70;;;;;;;;;;5010890;28;20218;-72
2022/01/01 00:47:57;;;;;;;88.63;63.33;;;;;;;;;;5012760;28;20236;-72
2022/01/01 00:50:23;;;;;;;92.07;64.03;;;;;;;;;;5012064;28;20243;-70
2022/01/01 00:52:52;;;;;;;103.43;70.73;;;;;;;;;;5011245;28;21158;-72
2022/01/01 00:55:19;;;;;;;106.13;74.97;;;;;;;;;;5012803;28;20241;-71
2022/01/01 00:57:46;;;;;;;102.00;69.07;;;;;;;;;;5012498;28;20223;-71
2022/01/01 01:00:14;;;;;;;103.87;73.77;;;;;;;;;;5011757;28;20298;-71
2022/01/01 01:02:41;;;;;;;105.27;75.07;;;;;;;;;;5011744;28;20679;-71
2022/01/01 01:05:08;;;;;;;101.87;71.60;;;;;;;;;;5013033;28;20697;-71
2022/01/01 01:07:34;;;;;;;111.53;71.37;;;;;;;;;;5010704;28;20227;-71
2022/01/01 01:10:01;;;;;;;95.67;65.43;;;;;;;;;;5010940;28;20224;-71
2022/01/01 01:12:37;;;;;;;96.70;65.33;;;;;;;;;;5012747;28;20577;-71
2022/01/01 01:15:04;;;;;;;100.87;68.13;;;;;;;;;;5011579;28;20919;-71
2022/01/01 01:17:32;;;;;;;106.20;68.30;;;;;;;;;;5011062;28;20707;-71
2022/01/01 01:19:58;;;;;;;92.37;63.07;;;;;;;;;;5012699;28;20707;-71
2022/01/01 01:22:26;;;;;;;98.37;68.37;;;;;;;;;;5010455;28;20207;-71
2022/01/01 01:24:53;;;;;;;93.30;60.53;;;;;;;;;;5010767;28;20249;-71
2022/01/01 01:27:20;;;;;;;92.73;60.00;;;;;;;;;;5013281;28;20258;-71
2022/01/01 01:29:46;;;;;;;98.97;64.27;;;;;;;;;;5011382;28;21133;-71
2022/01/01 01:32:13;;;;;;;95.57;62.37;;;;;;;;;;5009639;28;20249;-71
2022/01/01 01:34:40;;;;;;;98.87;67.60;;;;;;;;;;5013179;28;20235;-70
2022/01/01 01:37:07;;;;;;;98.10;69.43;;;;;;;;;;5011268;28;20213;-71
2022/01/01 01:39:33;;;;;;;106.20;70.47;;;;;;;;;;5012233;28;20745;-71
2022/01/01 01:41:59;;;;;;;109.40;72.53;;;;;;;;;;5012900;28;20673;-71
2022/01/01 01:44:32;;;;;;;110.13;74.73;;;;;;;;;;5012440;28;20207;-71
2022/01/01 01:47:02;;;;;;;105.77;71.10;;;;;;;;;;5010807;28;20237;-71
2022/01/01 01:49:28;;;;;;;112.03;75.17;;;;;;;;;;5012660;28;20288;-71
2022/01/01 01:51:56;;;;;;;119.77;77.53;;;;;;;;;;5011997;28;20271;-71
2022/01/01 01:54:23;;;;;;;119.40;77.77;;;;;;;;;;5011999;28;20225;-71
2022/01/01 01:56:49;;;;;;;117.67;82.97;;;;;;;;;;5012725;28;20632;-71
2022/01/01 01:59:16;;;;;;;113.37;81.37;;;;;;;;;;5011630;28;20260;-71
2022/01/01 02:01:43;;;;;;;122.50;86.47;;;;;;;;;;5009334;28;20222;-71
2022/01/01 02:04:09;;;;;;;127.93;89.17;;;;;;;;;;5012218;28;20219;-71
2022/01/01 02:06:36;;;;;;;126.50;90.73;;;;;;;;;;5012861;28;20210;-71
2022/01/01 02:09:04;;;;;;;121.70;87.77;;;;;;;;;;5010950;28;20217;-71
2022/01/01 02:11:31;;;;;;;120.83;90.77;;;;;;;;;;5011950;28;20233;-71
2022/01/01 02:14:03;;;;;;;125.57;91.00;;;;;;;;;;5011565;28;20693;-71
2022/01/01 02:19:15;;;;;;;109.57;78.93;;;;;;;;;;5011181;28;20250;-71
2022/01/01 02:21:42;;;;;;;110.93;78.17;;;;;;;;;;5012748;28;20268;-71
2022/01/01 02:24:09;;;;;;;113.50;80.60;;;;;;;;;;5011199;28;20718;-71
2022/01/01 02:26:35;;;;;;;109.97;79.87;;;;;;;;;;5010798;28;20232;-71
2022/01/01 02:29:03;;;;;;;115.63;79.37;;;;;;;;;;5012786;28;20503;-71
2022/01/01 02:31:32;;;;;;;112.37;79.30;;;;;;;;;;5011700;28;20329;-71
2022/01/01 02:34:03;;;;;;;128.73;87.47;;;;;;;;;;5011811;28;20572;-71
2022/01/01 02:36:31;;;;;;;116.37;83.43;;;;;;;;;;5011586;28;20281;-71
2022/01/01 02:38:59;;;;;;;116.77;82.67;;;;;;;;;;5012488;28;20221;-71
2022/01/01 02:41:26;;;;;;;119.40;81.63;;;;;;;;;;5013875;28;20923;-71
2022/01/01 02:43:53;;;;;;;109.83;78.40;;;;;;;;;;5014971;28;20259;-71
2022/01/01 02:46:20;;;;;;;110.90;82.07;;;;;;;;;;5014521;28;20214;-71
2022/01/01 02:48:46;;;;;;;113.43;83.70;;;;;;;;;;5015225;28;20211;-71
2022/01/01 02:51:12;;;;;;;112.40;78.73;;;;;;;;;;5016528;28;20215;-71
2022/01/01 02:53:42;;;;;;;99.93;75.83;;;;;;;;;;5014891;28;20230;-71
2022/01/01 02:56:10;;;;;;;101.87;74.80;;;;;;;;;;5013281;28;20222;-71
2022/01/01 02:58:36;;;;;;;107.10;73.13;;;;;;;;;;5014950;28;20210;-71
2022/01/01 03:01:02;;;;;;;103.30;77.83;;;;;;;;;;5013466;28;20277;-71
2022/01/01 03:03:29;;;;;;;109.20;78.63;;;;;;;;;;5014339;28;20230;-71
2022/01/01 03:05:55;;;;;;;102.00;74.50;;;;;;;;;;5014386;28;20264;-71
2022/01/01 03:08:21;;;;;;;113.40;78.70;;;;;;;;;;5014012;28;20243;-70
2022/01/01 03:10:49;;;;;;;108.50;75.20;;;;;;;;;;5013374;28;20239;-71
2022/01/01 03:13:17;;;;;;;101.33;73.17;;;;;;;;;;5015294;28;20210;-71
2022/01/01 03:15:44;;;;;;;100.97;70.10;;;;;;;;;;5014542;28;20280;-72
2022/01/01 03:18:10;;;;;;;100.63;67.40;;;;;;;;;;5013519;28;20348;-71
2022/01/01 03:20:37;;;;;;;94.43;67.43;;;;;;;;;;5014965;28;20214;-71
2022/01/01 03:23:04;;;;;;;98.47;69.00;;;;;;;;;;5013056;28;20210;-71
2022/01/01 03:25:31;;;;;;;98.50;64.83;;;;;;;;;;5011247;28;20231;-71
2022/01/01 03:27:57;;;;;;;91.47;63.17;;;;;;;;;;5014190;28;20215;-70
2022/01/01 03:30:25;;;;;;;95.17;65.77;;;;;;;;;;5014445;28;20294;-71
2022/01/01 03:32:51;;;;;;;90.80;60.07;;;;;;;;;;5012337;28;20235;-70
2022/01/01 03:35:18;;;;;;;87.43;61.10;;;;;;;;;;5013283;28;20243;-70
2022/01/01 03:37:44;;;;;;;87.43;57.90;;;;;;;;;;5014962;28;20334;-70
2022/01/01 03:40:11;;;;;;;93.23;60.70;;;;;;;;;;5012706;28;20230;-70
2022/01/01 03:42:38;;;;;;;94.40;58.87;;;;;;;;;;5015843;28;20215;-71
2022/01/01 03:45:06;;;;;;;81.23;58.97;;;;;;;;;;5015476;28;20219;-71
2022/01/01 03:47:34;;;;;;;87.63;59.63;;;;;;;;;;5012687;28;20238;-71
2022/01/01 03:50:00;;;;;;;89.93;60.83;;;;;;;;;;5012886;28;20261;-71
2022/01/01 03:52:27;;;;;;;86.23;56.70;;;;;;;;;;5015398;28;20656;-71
2022/01/01 03:54:53;;;;;;;83.73;51.50;;;;;;;;;;5010434;28;20230;-70
2022/01/01 03:57:20;;;;;;;79.70;49.47;;;;;;;;;;5012059;28;20219;-70
2022/01/01 03:59:47;;;;;;;76.47;48.37;;;;;;;;;;5014723;28;20210;-71
2022/01/01 04:02:14;;;;;;;74.13;47.00;;;;;;;;;;5012651;28;20230;-71
2022/01/01 04:04:42;;;;;;;71.00;44.87;;;;;;;;;;5013604;28;20719;-71
2022/01/01 04:07:10;;;;;;;71.23;44.33;;;;;;;;;;5015827;28;20238;-71
2022/01/01 04:09:36;;;;;;;69.67;43.47;;;;;;;;;;5011972;28;20220;-71
2022/01/01 04:12:03;;;;;;;66.00;40.07;;;;;;;;;;5012217;28;20621;-70
2022/01/01 04:14:29;;;;;;;71.40;40.33;;;;;;;;;;5013640;28;20546;-71
2022/01/01 04:16:57;;;;;;;62.07;34.80;;;;;;;;;;5011497;28;20246;-71
2022/01/01 04:19:32;;;;;;;63.37;34.53;;;;;;;;;;5013627;28;20218;-71
2022/01/01 04:22:00;;;;;;;59.87;33.80;;;;;;;;;;5013731;28;20218;-71
2022/01/01 04:24:26;;;;;;;51.63;31.83;;;;;;;;;;5011465;28;20285;-70
2022/01/01 04:26:53;;;;;;;52.53;32.00;;;;;;;;;;5010980;28;20262;-71
2022/01/01 04:29:19;;;;;;;54.93;30.23;;;;;;;;;;5013806;28;20699;-71
2022/01/01 04:31:45;;;;;;;56.53;29.83;;;;;;;;;;5013877;28;20230;-71
2022/01/01 04:34:12;;;;;;;54.07;29.13;;;;;;;;;;5011959;28;20262;-71
2022/01/01 04:36:47;;;;;;;50.30;28.73;;;;;;;;;;5014092;28;20230;-71
2022/01/01 04:39:15;;;;;;;48.57;26.57;;;;;;;;;;5012721;28;20214;-71
2022/01/01 04:41:41;;;;;;;45.90;24.97;;;;;;;;;;5011074;28;20237;-71
2022/01/01 04:44:08;;;;;;;46.60;24.90;;;;;;;;;;5013719;28;20268;-71
2022/01/01 04:46:34;;;;;;;46.30;24.70;;;;;;;;;;5013265;28;20234;-71
2022/01/01 04:49:01;;;;;;;40.73;21.67;;;;;;;;;;5011285;28;20212;-71
2022/01/01 04:51:28;;;;;;;44.80;24.40;;;;;;;;;;5013206;28;20733;-71
2022/01/01 04:53:59;;;;;;;43.87;23.90;;;;;;;;;;5011845;28;20211;-71
2022/01/01 04:56:28;;;;;;;39.73;22.63;;;;;;;;;;5012557;28;20240;-71
2022/01/01 04:58:55;;;;;;;42.97;22.17;;;;;;;;;;5012819;28;20269;-71
2022/01/01 05:01:21;;;;;;;38.27;21.70;;;;;;;;;;5013264;28;20308;-71
2022/01/01 05:03:48;;;;;;;39.90;23.13;;;;;;;;;;5011535;28;20218;-71
2022/01/01 05:06:15;;;;;;;37.43;22.10;;;;;;;;;;5012723;28;20210;-71
2022/01/01 05:08:41;;;;;;;37.83;23.57;;;;;;;;;;5014493;28;20281;-71
2022/01/01 05:11:08;;;;;;;44.37;22.30;;;;;;;;;;5012551;28;20223;-71
2022/01/01 05:13:36;;;;;;;40.20;21.23;;;;;;;;;;5012450;28;20218;-71
2022/01/01 05:16:02;;;;;;;34.70;20.63;;;;;;;;;;5012428;28;20877;-71
2022/01/01 05:18:29;;;;;;;38.33;21.00;;;;;;;;;;5011190;28;20223;-71
2022/01/01 05:20:55;;;;;;;37.37;19.83;;;;;;;;;;5010769;28;20319;-71
2022/01/01 05:23:21;;;;;;;33.40;20.70;;;;;;;;;;5013461;28;20254;-71
2022/01/01 05:25:48;;;;;;;43.20;20.43;;;;;;;;;;5009857;28;20658;-71
2022/01/01 05:28:14;;;;;;;28.40;18.93;;;;;;;;;;5012353;28;20277;-71
2022/01/01 05:30:42;;;;;;;33.78;20.00;;;;;;;;;;5014826;28;20445;-76
2022/01/01 05:33:08;;;;;;;31.70;19.50;;;;;;;;;;5011579;28;20289;-76
2022/01/01 05:35:35;;;;;;;33.20;19.20;;;;;;;;;;5012883;28;20281;-76
2022/01/01 05:38:01;;;;;;;33.40;20.17;;;;;;;;;;5012265;28;20265;-77
2022/01/01 05:40:28;;;;;;;30.03;19.63;;;;;;;;;;5011617;28;20235;-76
2022/01/01 05:42:54;;;;;;;33.70;19.57;;;;;;;;;;5011721;28;21088;-76
2022/01/01 05:45:21;;;;;;;32.47;20.07;;;;;;;;;;5013926;28;20219;-76
2022/01/01 05:47:49;;;;;;;35.73;20.97;;;;;;;;;;5011740;28;20254;-76
2022/01/01 05:50:17;;;;;;;33.37;20.77;;;;;;;;;;5010259;28;20787;-77
2022/01/01 05:52:43;;;;;;;33.93;21.00;;;;;;;;;;5012379;28;20223;-76
2022/01/01 05:55:10;;;;;;;41.03;21.50;;;;;;;;;;5012330;28;20235;-76
2022/01/01 05:57:37;;;;;;;34.03;20.90;;;;;;;;;;5010509;28;20318;-76
2022/01/01 06:00:06;;;;;;;33.93;22.93;;;;;;;;;;5012094;28;20211;-76
2022/01/01 06:02:39;;;;;;;31.60;22.70;;;;;;;;;;5012028;28;20228;-76
2022/01/01 06:05:08;;;;;;;37.00;23.67;;;;;;;;;;5012557;28;20203;-76
2022/01/01 06:07:34;;;;;;;36.77;23.23;;;;;;;;;;5011826;28;20212;-76
2022/01/01 06:10:01;;;;;;;41.10;24.23;;;;;;;;;;5013820;28;20226;-76
2022/01/01 06:12:27;;;;;;;39.30;25.37;;;;;;;;;;5011083;28;20228;-76
2022/01/01 06:14:54;;;;;;;40.27;24.07;;;;;;;;;;5016459;28;20292;-77
2022/01/01 06:17:20;;;;;;;32.20;22.87;;;;;;;;;;5014713;28;20691;-77
2022/01/01 06:19:47;;;;;;;38.10;24.80;;;;;;;;;;5014747;28;20686;-77
2022/01/01 06:22:15;;;;;;;38.87;24.77;;;;;;;;;;5015158;28;20273;-77
2022/01/01 06:24:41;;;;;;;39.17;24.60;;;;;;;;;;5014904;28;20325;-77
2022/01/01 06:27:07;;;;;;;36.73;24.37;;;;;;;;;;5014750;28;20669;-77
2022/01/01 06:29:34;;;;;;;36.80;23.50;;;;;;;;;;5016402;28;20224;-77
2022/01/01 06:32:00;;;;;;;34.10;22.47;;;;;;;;;;5015159;28;20235;-77
2022/01/01 06:34:28;;;;;;;33.97;24.23;;;;;;;;;;5014137;28;20268;-77
2022/01/01 06:37:03;;;;;;;32.03;22.67;;;;;;;;;;5015780;28;20234;-77
2022/01/01 06:39:31;;;;;;;38.43;22.23;;;;;;;;;;5015343;28;20211;-77
2022/01/01 06:41:57;;;;;;;38.00;23.23;;;;;;;;;;5015697;28;20224;-77
2022/01/01 06:44:24;;;;;;;35.30;21.17;;;;;;;;;;5013912;28;20270;-76
2022/01/01 06:46:51;;;;;;;32.50;21.73;;;;;;;;;;5016131;28;20296;-77
2022/01/01 06:49:18;;;;;;;31.63;21.00;;;;;;;;;;5015600;28;20230;-77
2022/01/01 06:51:44;;;;;;;34.37;22.33;;;;;;;;;;5014759;28;20215;-77
2022/01/01 06:54:11;;;;;;;36.07;21.77;;;;;;;;;;5014574;28;20212;-77
2022/01/01 06:56:39;;;;;;;26.83;20.20;;;;;;;;;;5014845;28;20285;-77
2022/01/01 06:59:05;;;;;;;35.23;22.27;;;;;;;;;;5014340;28;20285;-77
2022/01/01 07:01:32;;;;;;;35.20;21.67;;;;;;;;;;5015714;28;20240;-77
2022/01/01 07:03:58;;;;;;;33.13;20.40;;;;;;;;;;5014343;28;20223;-77
2022/01/01 07:06:24;;;;;;;27.43;18.77;;;;;;;;;;5014623;28;20553;-77
2022/01/01 07:08:51;;;;;;;25.67;18.30;;;;;;;;;;5016732;28;20758;-77
2022/01/01 07:11:17;;;;;;;24.57;17.87;;;;;;;;;;5014159;28;20243;-77
2022/01/01 07:13:45;;;;;;;27.80;17.27;;;;;;;;;;5013237;28;20216;-77
2022/01/01 07:16:11;;;;;;;26.00;17.27;;;;;;;;;;5015717;28;20235;-77
2022/01/01 07:18:38;;;;;;;24.03;16.87;;;;;;;;;;5012784;28;20269;-77
2022/01/01 07:21:04;;;;;;;30.27;17.63;;;;;;;;;;5013866;28;20242;-77
2022/01/01 07:23:31;;;;;;;25.43;15.67;;;;;;;;;;5015101;28;20717;-77
2022/01/01 07:25:57;;;;;;;24.30;14.60;;;;;;;;;;5012870;28;20277;-76
2022/01/01 07:28:23;;;;;;;27.33;16.10;;;;;;;;;;5011571;28;20277;-77
2022/01/01 07:30:51;;;;;;;30.77;17.43;;;;;;;;;;5014394;28;20573;-78
2022/01/01 07:33:18;;;;;;;29.50;18.53;;;;;;;;;;5013935;28;20233;-77
2022/01/01 07:35:44;;;;;;;29.13;18.00;;;;;;;;;;5012706;28;20678;-77
2022/01/01 07:38:11;;;;;;;26.90;15.97;;;;;;;;;;5012822;28;20242;-76
2022/01/01 07:40:39;;;;;;;23.10;16.97;;;;;;;;;;5012095;28;20270;-77
2022/01/01 07:43:11;;;;;;;28.77;16.73;;;;;;;;;;5012179;28;20302;-77
2022/01/01 07:45:37;;;;;;;27.57;17.60;;;;;;;;;;5014926;28;20518;-77
2022/01/01 07:48:05;;;;;;;24.80;15.20;;;;;;;;;;5012722;28;20234;-77
2022/01/01 07:50:32;;;;;;;26.77;15.80;;;;;;;;;;5011970;28;20282;-77
2022/01/01 07:52:58;;;;;;;27.03;16.30;;;;;;;;;;5011448;28;20207;-77
2022/01/01 07:55:25;;;;;;;29.00;15.73;;;;;;;;;;5012953;28;20628;-77
2022/01/01 07:57:51;;;;;;;25.80;14.90;;;;;;;;;;5012767;28;20241;-77
2022/01/01 08:00:19;;;;;;;22.47;15.17;;;;;;;;;;5012902;28;20815;-77
2022/01/01 08:02:47;;;;;;;23.13;14.60;;;;;;;;;;5012835;28;20246;-77
2022/01/01 08:05:16;;;;;;;25.73;14.83;;;;;;;;;;5011172;28;21026;-77
2022/01/01 08:07:44;;;;;;;28.23;16.47;;;;;;;;;;5013122;28;20274;-77
2022/01/01 08:10:12;;;;;;;24.93;14.97;;;;;;;;;;5012975;28;20313;-77
2022/01/01 08:12:40;;;;;;;23.90;13.83;;;;;;;;;;5013886;28;20212;-77
2022/01/01 08:15:08;;;;;;;23.60;14.60;;;;;;;;;;5013707;28;20330;-77
2022/01/01 08:17:35;;;;;;;21.43;14.33;;;;;;;;;;5014136;28;20693;-77
2022/01/01 08:20:02;;;;;;;22.30;15.10;;;;;;;;;;5013047;28;20274;-77
2022/01/01 08:22:29;;;;;;;23.83;15.07;;;;;;;;;;5012919;28;20869;-77
2022/01/01 08:24:56;;;;;;;25.73;13.53;;;;;;;;;;5012039;28;20281;-77
2022/01/01 08:27:22;;;;;;;21.30;13.37;;;;;;;;;;5009561;28;20282;-77
2022/01/01 08:29:49;;;;;;;21.27;13.10;;;;;;;;;;5012327;28;20215;-77
2022/01/01 08:32:16;;;;;;;18.27;12.67;;;;;;;;;;5013082;28;20235;-77
2022/01/01 08:34:43;;;;;;;22.23;12.40;;;;;;;;;;5011416;28;20270;-77
2022/01/01 08:37:10;;;;;;;17.10;11.50;;;;;;;;;;5011279;28;20230;-77
2022/01/01 08:39:38;;;;;;;17.03;12.07;;;;;;;;;;5011752;28;20577;-77
2022/01/01 08:42:05;;;;;;;21.10;13.07;;;;;;;;;;5013824;28;20214;-77
2022/01/01 08:44:32;;;;;;;21.07;14.20;;;;;;;;;;5011349;28;20221;-76
2022/01/01 08:46:58;;;;;;;19.97;14.60;;;;;;;;;;5011736;28;20234;-76
2022/01/01 08:49:25;;;;;;;21.50;14.73;;;;;;;;;;5013811;28;20282;-76
2022/01/01 08:51:55;;;;;;;22.40;14.47;;;;;;;;;;5012076;28;20223;-76
2022/01/01 08:54:22;;;;;;;21.40;14.00;;;;;;;;;;5010399;28;20618;-76
2022/01/01 08:56:49;;;;;;;20.80;12.90;;;;;;;;;;5013784;28;20710;-76
2022/01/01 08:59:17;;;;;;;21.10;13.53;;;;;;;;;;5010329;28;20271;-76
2022/01/01 09:01:43;;;;;;;20.80;13.13;;;;;;;;;;5008361;28;21104;-76
2022/01/01 09:04:10;;;;;;;24.03;13.00;;;;;;;;;;5012152;28;20778;-76
2022/01/01 09:06:36;;;;;;;20.00;11.67;;;;;;;;;;5008468;28;20223;-76
2022/01/01 09:09:03;;;;;;;20.43;12.03;;;;;;;;;;5011622;28;20623;-76
2022/01/01 09:11:30;;;;;;;17.77;11.87;;;;;;;;;;5010376;28;20231;-76
2022/01/01 09:13:58;;;;;;;17.60;11.67;;;;;;;;;;5011313;28;20872;-76
2022/01/01 09:16:29;;;;;;;16.20;10.83;;;;;;;;;;5010659;28;20227;-76
2022/01/01 09:18:56;;;;;;;17.80;10.60;;;;;;;;;;5012476;28;20207;-76
2022/01/01 09:21:23;;;;;;;16.07;10.63;;;;;;;;;;5008956;28;20203;-75
2022/01/01 09:23:49;;;;;;;17.57;10.60;;;;;;;;;;5011013;28;20246;-76
2022/01/01 09:26:16;;;;;;;16.97;11.00;;;;;;;;;;5010565;28;20309;-76
2022/01/01 09:28:42;;;;;;;14.73;9.57;;;;;;;;;;5008601;28;21882;-76
2022/01/01 09:31:10;;;;;;;15.13;10.20;;;;;;;;;;5009468;28;20213;-76
2022/01/01 09:33:37;;;;;;;14.97;9.90;;;;;;;;;;5010545;28;20215;-75
2022/01/01 09:36:06;;;;;;;17.77;9.27;;;;;;;;;;5009387;28;20212;-76
2022/01/01 09:38:33;;;;;;;17.07;9.83;;;;;;;;;;5010301;28;20242;-76
2022/01/01 09:41:01;;;;;;;15.80;9.53;;;;;;;;;;5010322;28;20645;-76
2022/01/01 09:43:29;;;;;;;12.73;8.87;;;;;;;;;;5009610;28;20210;-77
2022/01/01 09:45:57;;;;;;;14.23;8.70;;;;;;;;;;5010988;28;20211;-76
2022/01/01 09:48:26;;;;;;;14.00;7.87;;;;;;;;;;5011227;28;20694;-76
2022/01/01 09:50:55;;;;;;;12.03;8.27;;;;;;;;;;5014588;28;20211;-76
2022/01/01 09:53:23;;;;;;;13.77;7.93;;;;;;;;;;5013942;28;20226;-76
2022/01/01 09:55:50;;;;;;;12.30;7.60;;;;;;;;;;5014510;28;20237;-76
2022/01/01 09:58:17;;;;;;;11.17;6.93;;;;;;;;;;5014038;28;20846;-76
2022/01/01 10:00:43;;;;;;;11.63;6.70;;;;;;;;;;5014735;28;20219;-76
2022/01/01 10:03:13;;;;;;;15.50;7.57;;;;;;;;;;5013914;28;20215;-77
2022/01/01 10:06:00;;;;;;;10.07;6.90;;;;;;;;;;5013693;28;20220;-76
2022/01/01 10:08:27;;;;;;;11.53;7.07;;;;;;;;;;5014367;28;20234;-76
2022/01/01 10:10:54;;;;;;;11.33;7.03;;;;;;;;;;5012632;28;20257;-76
2022/01/01 10:13:26;;;;;;;10.87;6.77;;;;;;;;;;5014183;28;20234;-76
2022/01/01 10:15:54;;;;;;;9.67;6.57;;;;;;;;;;5013060;28;21277;-76
2022/01/01 10:18:25;;;;;;;9.60;6.60;;;;;;;;;;5015640;28;20236;-76
2022/01/01 10:20:56;;;;;;;10.17;6.70;;;;;;;;;;5012894;28;20216;-76
2022/01/01 10:23:29;;;;;;;9.13;6.63;;;;;;;;;;5015403;28;20239;-76
2022/01/01 10:29:02;;;;;;;10.70;6.57;;;;;;;;;;5012793;28;20226;-76
2022/01/01 10:31:29;;;;;;;11.40;6.77;;;;;;;;;;5014477;28;20235;-76
2022/01/01 10:33:55;;;;;;;10.87;6.67;;;;;;;;;;5014029;28;20207;-76
2022/01/01 10:36:23;;;;;;;9.73;6.53;;;;;;;;;;5015190;28;20211;-75
2022/01/01 10:38:51;;;;;;;11.10;6.17;;;;;;;;;;5014461;28;20230;-76
2022/01/01 10:41:18;;;;;;;12.87;6.20;;;;;;;;;;5014834;28;20245;-77
2022/01/01 10:43:45;;;;;;;9.97;5.53;;;;;;;;;;5014375;28;20307;-76
2022/01/01 10:46:14;;;;;;;8.23;6.47;;;;;;;;;;5012169;28;20298;-76
2022/01/01 10:48:53;;;;;;;11.90;7.23;;;;;;;;;;5014618;28;20616;-77
2022/01/01 10:51:20;;;;;;;11.33;6.50;;;;;;;;;;5013530;28;20250;-76
2022/01/01 10:53:46;;;;;;;12.43;6.13;;;;;;;;;;5013472;28;20212;-77
2022/01/01 10:56:20;;;;;;;12.53;7.20;;;;;;;;;;5014618;28;20227;-77
2022/01/01 10:58:59;;;;;;;8.77;6.23;;;;;;;;;;5013314;28;20721;-76
2022/01/01 11:01:25;;;;;;;10.17;6.67;;;;;;;;;;5015023;28;20243;-76
2022/01/01 11:03:55;;;;;;;11.77;6.73;;;;;;;;;;5015750;28;20273;-76
2022/01/01 11:06:22;;;;;;;9.73;5.97;;;;;;;;;;5012457;28;20281;-76
2022/01/01 11:08:50;;;;;;;13.00;6.37;;;;;;;;;;5017665;28;20244;-77
2022/01/01 11:11:18;;;;;;;9.43;6.40;;;;;;;;;;5012196;28;20844;-76
2022/01/01 11:13:45;;;;;;;10.53;7.10;;;;;;;;;;5012904;28;20220;-77
2022/01/01 11:16:14;;;;;;;9.03;6.67;;;;;;;;;;5007671;28;20269;-76
2022/01/01 11:18:40;;;;;;;12.27;6.60;;;;;;;;;;5007729;28;20264;-77
2022/01/01 11:21:07;;;;;;;11.80;7.07;;;;;;;;;;5004134;28;20204;-76
2022/01/01 11:23:34;;;;;;;12.93;6.67;;;;;;;;;;5011773;28;20246;-77
2022/01/01 11:26:02;;;;;;;10.63;6.70;;;;;;;;;;5010344;28;20227;-76
2022/01/01 11:28:29;;;;;;;11.37;7.33;;;;;;;;;;5012793;28;20225;-76
2022/01/01 11:31:02;;;;;;;10.47;6.93;;;;;;;;;;5010161;28;20607;-76
2022/01/01 11:33:31;;;;;;;7.67;5.70;;;;;;;;;;5010761;28;20227;-76
2022/01/01 11:35:59;;;;;;;10.77;7.17;;;;;;;;;;5013456;28;20215;-76
2022/01/01 11:38:27;;;;;;;11.07;7.40;;;;;;;;;;5009549;28;20232;-76
2022/01/01 11:40:56;;;;;;;12.13;8.10;;;;;;;;;;5010810;28;20224;-76
2022/01/01 11:43:41;;;;;;;11.70;8.07;;;;;;;;;;5010507;28;20214;-76
2022/01/01 11:46:13;;;;;;;11.37;7.90;;;;;;;;;;5013042;28;20560;-76
2022/01/01 11:48:50;;;;;;;12.53;7.57;;;;;;;;;;5010759;28;20657;-76
2022/01/01 11:51:31;;;;;;;10.83;7.63;;;;;;;;;;5010664;28;21516;-76
2022/01/01 11:54:24;;;;;;;14.60;7.27;;;;;;;;;;5011939;28;20671;-76
2022/01/01 11:57:17;;;;;;;11.13;7.07;;;;;;;;;;5007079;28;20273;-76
2022/01/01 11:59:50;;;;;;;13.00;9.40;;;;;;;;;;5010705;28;20211;-76
2022/01/01 12:02:35;;;;;;;10.03;7.17;;;;;;;;;;5009475;28;20297;-76
2022/01/01 12:05:31;;;;;;;11.97;7.43;;;;;;;;;;5012780;28;20543;-76
2022/01/01 12:08:00;;;;;;;11.50;7.80;;;;;;;;;;5010361;28;20203;-76
2022/01/01 12:10:29;;;;;;;11.53;7.20;;;;;;;;;;5010543;28;20235;-77
2022/01/01 12:12:58;;;;;;;10.43;7.60;;;;;;;;;;5010055;28;20196;-76
2022/01/01 12:15:37;;;;;;;9.67;6.67;;;;;;;;;;5009395;28;20243;-76
2022/01/01 12:18:08;;;;;;;14.07;8.00;;;;;;;;;;5009283;28;20247;-76
2022/01/01 12:20:37;;;;;;;10.07;7.67;;;;;;;;;;5011256;28;20226;-76
2022/01/01 12:23:07;;;;;;;11.03;7.53;;;;;;;;;;5009934;28;20212;-76
2022/01/01 12:25:35;;;;;;;13.60;8.10;;;;;;;;;;5008276;28;20223;-76
2022/01/01 12:28:05;;;;;;;12.00;8.40;;;;;;;;;;5010525;28;20254;-76
2022/01/01 12:30:42;;;;;;;11.63;8.20;;;;;;;;;;5007584;28;20282;-76
2022/01/01 12:33:10;;;;;;;10.77;9.17;;;;;;;;;;5009918;28;20285;-76
2022/01/01 12:35:48;;;;;;;11.57;8.60;;;;;;;;;;5006362;28;20288;-77
2022/01/01 12:38:19;;;;;;;10.23;8.83;;;;;;;;;;5008453;28;20235;-76
2022/01/01 12:41:06;;;;;;;9.47;8.47;;;;;;;;;;5009279;28;20736;-76
2022/01/01 12:43:41;;;;;;;12.80;8.30;;;;;;;;;;5007795;28;20223;-76
2022/01/01 12:46:10;;;;;;;10.67;7.90;;;;;;;;;;5009359;28;20212;-76
2022/01/01 12:48:38;;;;;;;12.27;8.47;;;;;;;;;;5009282;28;20212;-76
2022/01/01 12:51:06;;;;;;;11.33;9.10;;;;;;;;;;5011268;28;20278;-76
2022/01/01 12:53:37;;;;;;;10.97;8.57;;;;;;;;;;5008204;28;20274;-76
2022/01/01 12:56:06;;;;;;;10.90;8.53;;;;;;;;;;5009981;28;20239;-75
2022/01/01 12:58:35;;;;;;;14.47;8.70;;;;;;;;;;5005603;28;20286;-76
2022/01/01 13:01:11;;;;;;;10.50;8.10;;;;;;;;;;5008258;28;20266;-75
2022/01/01 13:03:38;;;;;;;15.13;8.47;;;;;;;;;;5008667;28;20284;-76
2022/01/01 13:06:05;;;;;;;11.23;8.30;;;;;;;;;;5010701;28;20216;-76
2022/01/01 13:08:31;;;;;;;10.03;8.43;;;;;;;;;;5007546;28;20306;-76
2022/01/01 13:10:58;;;;;;;12.33;7.97;;;;;;;;;;5010837;28;20231;-76
2022/01/01 13:13:25;;;;;;;13.70;9.07;;;;;;;;;;5006002;28;20212;-76
2022/01/01 13:15:55;;;;;;;10.77;8.67;;;;;;;;;;5008082;28;20412;-76
2022/01/01 13:18:27;;;;;;;10.40;8.37;;;;;;;;;;5007682;28;20793;-76
2022/01/01 13:20:53;;;;;;;12.20;8.07;;;;;;;;;;5009455;28;20780;-76
2022/01/01 13:23:20;;;;;;;10.80;7.70;;;;;;;;;;5002526;28;20597;-76
2022/01/01 13:25:46;;;;;;;7.87;7.07;;;;;;;;;;5009323;28;20224;-76
2022/01/01 13:28:13;;;;;;;10.10;7.07;;;;;;;;;;5008039;28;20203;-76
2022/01/01 13:30:40;;;;;;;9.80;7.83;;;;;;;;;;5008644;28;20223;-76
2022/01/01 13:33:06;;;;;;;14.33;8.63;;;;;;;;;;5007705;28;20636;-76
2022/01/01 13:35:34;;;;;;;9.73;7.87;;;;;;;;;;5008810;28;20209;-76
2022/01/01 13:38:00;;;;;;;9.90;8.17;;;;;;;;;;5008836;28;20262;-76
2022/01/01 13:40:27;;;;;;;10.00;7.97;;;;;;;;;;5006209;28;20234;-75
2022/01/01 13:42:53;;;;;;;11.43;7.83;;;;;;;;;;5009651;28;20259;-75
2022/01/01 13:45:24;;;;;;;8.83;7.87;;;;;;;;;;5006104;28;20212;-75
2022/01/01 13:47:50;;;;;;;12.17;7.60;;;;;;;;;;5009715;28;20236;-75
2022/01/01 13:50:19;;;;;;;9.80;7.63;;;;;;;;;;5007291;28;20224;-75
2022/01/01 13:52:56;;;;;;;9.50;7.50;;;;;;;;;;5010114;28;20220;-76
2022/01/01 13:55:26;;;;;;;11.73;8.10;;;;;;;;;;5007492;28;20245;-75
2022/01/01 13:57:54;;;;;;;12.20;7.80;;;;;;;;;;5009639;28;20214;-75
2022/01/01 14:00:23;;;;;;;9.53;8.30;;;;;;;;;;5006476;28;20222;-76
2022/01/01 14:02:49;;;;;;;10.40;7.93;;;;;;;;;;5009022;28;20230;-76
2022/01/01 14:05:17;;;;;;;9.77;7.77;;;;;;;;;;5008228;28;20207;-76
2022/01/01 14:07:43;;;;;;;10.73;7.40;;;;;;;;;;5008628;28;20733;-76
2022/01/01 14:10:15;;;;;;;10.70;8.67;;;;;;;;;;5005865;28;20219;-76
2022/01/01 14:12:43;;;;;;;11.57;8.17;;;;;;;;;;5009607;28;20222;-75
2022/01/01 14:15:12;;;;;;;11.83;8.03;;;;;;;;;;5007895;28;20700;-75
2022/01/01 14:17:56;;;;;;;11.47;7.13;;;;;;;;;;5008645;28;20243;-75
2022/01/01 14:20:26;;;;;;;11.10;7.50;;;;;;;;;;5007524;28;20203;-75
2022/01/01 14:22:53;;;;;;;10.80;6.83;;;;;;;;;;5006279;28;20270;-75
2022/01/01 14:25:21;;;;;;;10.83;7.60;;;;;;;;;;5008930;28;20224;-76
2022/01/01 14:27:48;;;;;;;11.20;7.37;;;;;;;;;;5006553;28;20258;-75
2022/01/01 14:30:14;;;;;;;9.20;7.30;;;;;;;;;;5011093;28;20218;-75
2022/01/01 14:32:45;;;;;;;7.90;7.10;;;;;;;;;;5006417;28;20246;-75